createdAt,value
2018-12-30T00:00:13.429Z,78.44
2018-12-30T00:00:54.160Z,78.44
2018-12-30T00:01:34.969Z,78.53
2018-12-30T00:02:15.747Z,78.53
2018-12-30T00:02:56.440Z,78.25
2018-12-30T00:03:37.449Z,78.34
2018-12-30T00:04:18.335Z,78.44
2018-12-30T00:04:58.992Z,78.34
2018-12-30T00:05:39.868Z,78.34
2018-12-30T00:06:20.788Z,78.53
2018-12-30T00:07:01.514Z,78.53
2018-12-30T00:07:42.346Z,78.53
2018-12-30T00:08:23.144Z,78.34
2018-12-30T00:09:03.889Z,78.34
2018-12-30T00:09:44.717Z,78.44
2018-12-30T00:10:25.512Z,78.34
2018-12-30T00:11:06.450Z,78.28
2018-12-30T00:11:47.400Z,78.25
2018-12-30T00:12:28.098Z,78.53
2018-12-30T00:13:09.021Z,78.25
2018-12-30T00:13:49.967Z,78.25
2018-12-30T00:14:30.809Z,78.34
2018-12-30T00:15:11.598Z,78.25
2018-12-30T00:15:52.370Z,78.44
2018-12-30T00:16:33.173Z,78.34
2018-12-30T00:17:14.014Z,78.34
2018-12-30T00:17:54.851Z,78.34
2018-12-30T00:18:35.790Z,78.25
2018-12-30T00:19:16.511Z,78.25
2018-12-30T00:19:57.418Z,78.53
2018-12-30T00:20:38.796Z,78.63
2018-12-30T00:21:19.210Z,78.34
2018-12-30T00:22:00.676Z,78.34
2018-12-30T00:22:41.405Z,78.34
2018-12-30T00:23:22.193Z,78.34
2018-12-30T00:24:03.018Z,78.25
2018-12-30T00:24:43.960Z,78.25
2018-12-30T00:25:24.714Z,78.53
2018-12-30T00:26:05.788Z,78.44
2018-12-30T00:26:46.600Z,78.53
2018-12-30T00:27:27.483Z,78.53
2018-12-30T00:28:08.236Z,78.63
2018-12-30T00:28:49.071Z,78.72
2018-12-30T00:29:29.889Z,78.82
2018-12-30T00:30:10.693Z,78.82
2018-12-30T00:30:51.510Z,78.72
2018-12-30T00:31:32.462Z,78.72
2018-12-30T00:32:13.306Z,78.53
2018-12-30T00:32:54.234Z,78.53
2018-12-30T00:33:35.084Z,78.72
2018-12-30T00:34:15.806Z,78.44
2018-12-30T00:34:56.546Z,78.44
2018-12-30T00:35:37.640Z,78.15
2018-12-30T00:36:18.341Z,78.05
2018-12-30T00:36:59.165Z,78.44
2018-12-30T00:37:40.031Z,78.05
2018-12-30T00:38:20.795Z,78.15
2018-12-30T00:39:01.701Z,78.05
2018-12-30T00:39:42.487Z,78.05
2018-12-30T00:40:23.340Z,78.34
2018-12-30T00:41:04.167Z,78.05
2018-12-30T00:41:44.933Z,77.95
2018-12-30T00:42:25.820Z,77.86
2018-12-30T00:43:06.587Z,78.05
2018-12-30T00:43:47.513Z,77.86
2018-12-30T00:44:28.436Z,77.86
2018-12-30T00:45:09.145Z,77.86
2018-12-30T00:45:49.877Z,78.05
2018-12-30T00:46:30.592Z,77.95
2018-12-30T00:47:11.422Z,78.05
2018-12-30T00:47:52.424Z,78.05
2018-12-30T00:48:33.167Z,78.15
2018-12-30T00:49:14.127Z,77.95
2018-12-30T00:49:54.949Z,77.86
2018-12-30T00:50:35.750Z,77.95
2018-12-30T00:51:17.064Z,78.15
2018-12-30T00:51:57.246Z,78.05
2018-12-30T00:52:38.169Z,78.15
2018-12-30T00:53:18.984Z,77.95
2018-12-30T00:53:59.879Z,78.05
2018-12-30T00:54:40.905Z,78.15
2018-12-30T00:55:21.692Z,78.05
2018-12-30T00:56:02.456Z,77.95
2018-12-30T00:56:43.493Z,78.05
2018-12-30T00:57:24.450Z,77.95
2018-12-30T00:58:05.242Z,78.05
2018-12-30T00:58:46.134Z,78.05
2018-12-30T00:59:26.968Z,78.25
2018-12-30T01:00:07.751Z,78.25
2018-12-30T01:00:48.576Z,78.25
2018-12-30T01:01:29.346Z,77.86
2018-12-30T01:02:10.186Z,78.25
2018-12-30T01:02:51.046Z,78.05
2018-12-30T01:03:31.852Z,78.34
2018-12-30T01:04:12.810Z,78.05
2018-12-30T01:04:53.797Z,77.95
2018-12-30T01:05:34.495Z,78.44
2018-12-30T01:06:15.516Z,78.34
2018-12-30T01:06:56.404Z,78.34
2018-12-30T01:07:37.339Z,78.44
2018-12-30T01:08:18.082Z,78.25
2018-12-30T01:08:58.845Z,78.25
2018-12-30T01:09:39.729Z,78.15
2018-12-30T01:10:20.631Z,77.67
2018-12-30T01:11:01.395Z,78.25
2018-12-30T01:11:42.202Z,77.67
2018-12-30T01:12:23.060Z,77.58
2018-12-30T01:13:04.088Z,78.25
2018-12-30T01:13:45.290Z,77.67
2018-12-30T01:14:26.047Z,77.67
2018-12-30T01:15:06.839Z,77.58
2018-12-30T01:15:47.718Z,77.76
2018-12-30T01:16:28.581Z,77.67
2018-12-30T01:17:09.575Z,77.76
2018-12-30T01:17:50.194Z,77.67
2018-12-30T01:18:30.977Z,77.76
2018-12-30T01:19:11.882Z,77.76
2018-12-30T01:19:52.544Z,77.67
2018-12-30T01:20:33.579Z,77.67
2018-12-30T01:21:14.535Z,77.76
2018-12-30T01:21:55.809Z,77.95
2018-12-30T01:22:36.436Z,77.67
2018-12-30T01:23:17.584Z,78.05
2018-12-30T01:23:58.767Z,77.76
2018-12-30T01:24:39.552Z,77.76
2018-12-30T01:25:20.274Z,77.95
2018-12-30T01:26:01.043Z,77.86
2018-12-30T01:26:41.942Z,77.76
2018-12-30T01:27:22.852Z,78.05
2018-12-30T01:28:03.788Z,77.95
2018-12-30T01:28:44.453Z,77.86
2018-12-30T01:29:25.251Z,77.86
2018-12-30T01:30:05.944Z,77.95
2018-12-30T01:30:46.712Z,77.95
2018-12-30T01:31:27.547Z,77.95
2018-12-30T01:32:08.534Z,77.76
2018-12-30T01:32:49.433Z,77.86
2018-12-30T01:33:30.269Z,77.95
2018-12-30T01:34:11.072Z,78.05
2018-12-30T01:34:51.887Z,78.05
2018-12-30T01:35:32.719Z,77.76
2018-12-30T01:36:13.644Z,78.05
2018-12-30T01:36:54.629Z,77.58
2018-12-30T01:37:35.394Z,77.86
2018-12-30T01:38:16.248Z,77.48
2018-12-30T01:38:57.044Z,77.48
2018-12-30T01:39:37.835Z,77.86
2018-12-30T01:40:18.659Z,77.76
2018-12-30T01:40:59.490Z,77.76
2018-12-30T01:41:40.340Z,77.86
2018-12-30T01:42:21.219Z,77.38
2018-12-30T01:43:02.087Z,77.76
2018-12-30T01:43:42.790Z,77.76
2018-12-30T01:44:23.629Z,77.67
2018-12-30T01:45:04.344Z,77.67
2018-12-30T01:45:45.200Z,77.38
2018-12-30T01:46:26.183Z,77.48
2018-12-30T01:47:06.987Z,77.48
2018-12-30T01:47:47.929Z,77.48
2018-12-30T01:48:28.731Z,77.38
2018-12-30T01:49:09.650Z,77.48
2018-12-30T01:49:50.624Z,77.76
2018-12-30T01:50:31.417Z,77.58
2018-12-30T01:51:12.386Z,77.38
2018-12-30T01:51:53.158Z,77.58
2018-12-30T01:52:34.053Z,77.48
2018-12-30T01:53:14.893Z,77.58
2018-12-30T01:53:55.607Z,77.38
2018-12-30T01:54:36.360Z,77.19
2018-12-30T01:55:17.212Z,77.76
2018-12-30T01:55:58.012Z,77.58
2018-12-30T01:56:38.779Z,77.48
2018-12-30T01:57:19.562Z,77.67
2018-12-30T01:58:00.479Z,77.48
2018-12-30T01:58:41.365Z,77.48
2018-12-30T01:59:22.211Z,77.29
2018-12-30T02:00:02.984Z,77.67
2018-12-30T02:00:43.912Z,77
2018-12-30T02:01:24.786Z,77.29
2018-12-30T02:02:05.630Z,77.09
2018-12-30T02:02:46.536Z,77.29
2018-12-30T02:03:27.263Z,77.29
2018-12-30T02:04:08.011Z,77.29
2018-12-30T02:04:48.768Z,77
2018-12-30T02:05:29.531Z,77.09
2018-12-30T02:06:10.386Z,77.09
2018-12-30T02:06:51.087Z,77
2018-12-30T02:07:32.145Z,77.09
2018-12-30T02:08:12.958Z,77.09
2018-12-30T02:08:53.907Z,77.09
2018-12-30T02:09:34.742Z,77.09
2018-12-30T02:10:15.594Z,77.09
2018-12-30T02:10:56.373Z,77.29
2018-12-30T02:11:37.311Z,77.09
2018-12-30T02:12:18.012Z,77.09
2018-12-30T02:12:58.795Z,77
2018-12-30T02:13:39.514Z,77
2018-12-30T02:14:20.458Z,77.29
2018-12-30T02:15:01.373Z,77.29
2018-12-30T02:15:42.093Z,77
2018-12-30T02:16:22.869Z,77
2018-12-30T02:17:03.759Z,77.09
2018-12-30T02:17:44.572Z,77
2018-12-30T02:18:25.367Z,77.29
2018-12-30T02:19:06.055Z,77.29
2018-12-30T02:19:46.783Z,77.38
2018-12-30T02:20:27.497Z,77.38
2018-12-30T02:21:08.293Z,77
2018-12-30T02:21:49.156Z,76.81
2018-12-30T02:22:29.961Z,77.19
2018-12-30T02:23:10.659Z,77.29
2018-12-30T02:23:51.420Z,77.29
2018-12-30T02:24:32.179Z,77.38
2018-12-30T02:25:12.926Z,77.19
2018-12-30T02:25:53.614Z,76.81
2018-12-30T02:26:34.340Z,77.19
2018-12-30T02:27:15.084Z,76.52
2018-12-30T02:27:55.893Z,76.42
2018-12-30T02:28:36.677Z,76.81
2018-12-30T02:29:17.412Z,76.9
2018-12-30T02:29:58.197Z,76.62
2018-12-30T02:30:38.933Z,76.62
2018-12-30T02:31:19.655Z,76.71
2018-12-30T02:32:00.436Z,76.9
2018-12-30T02:32:41.207Z,76.62
2018-12-30T02:33:21.960Z,76.62
2018-12-30T02:34:02.728Z,76.62
2018-12-30T02:34:43.522Z,76.62
2018-12-30T02:35:24.354Z,76.32
2018-12-30T02:36:05.119Z,76.9
2018-12-30T02:36:45.903Z,76.9
2018-12-30T02:37:26.634Z,76.81
2018-12-30T02:38:07.374Z,76.71
2018-12-30T02:38:48.178Z,76.81
2018-12-30T02:39:28.930Z,77
2018-12-30T02:40:09.722Z,77
2018-12-30T02:40:50.425Z,76.71
2018-12-30T02:41:31.236Z,76.9
2018-12-30T02:42:12.039Z,76.9
2018-12-30T02:42:52.820Z,76.9
2018-12-30T02:43:33.546Z,76.71
2018-12-30T02:44:14.268Z,76.9
2018-12-30T02:44:55.070Z,77
2018-12-30T02:45:35.878Z,76.52
2018-12-30T02:46:16.619Z,76.71
2018-12-30T02:46:57.340Z,76.52
2018-12-30T02:47:38.117Z,76.62
2018-12-30T02:48:18.942Z,76.71
2018-12-30T02:48:59.721Z,76.52
2018-12-30T02:49:40.445Z,76.81
2018-12-30T02:50:21.300Z,76.62
2018-12-30T02:51:02.104Z,76.71
2018-12-30T02:51:50.168Z,76.71
2018-12-30T02:52:23.587Z,76.81
2018-12-30T02:53:04.337Z,76.71
2018-12-30T02:53:45.147Z,76.52
2018-12-30T02:54:25.967Z,76.81
2018-12-30T02:55:06.773Z,76.71
2018-12-30T02:55:47.502Z,76.52
2018-12-30T02:56:28.256Z,76.62
2018-12-30T02:57:08.956Z,76.62
2018-12-30T02:57:49.749Z,76.9
2018-12-30T02:58:30.547Z,76.52
2018-12-30T02:59:11.258Z,76.71
2018-12-30T02:59:52.063Z,76.62
2018-12-30T03:00:32.897Z,76.42
2018-12-30T03:01:13.715Z,76.52
2018-12-30T03:01:54.464Z,76.81
2018-12-30T03:02:35.168Z,76.62
2018-12-30T03:03:15.878Z,76.52
2018-12-30T03:03:56.639Z,76.71
2018-12-30T03:04:37.495Z,76.62
2018-12-30T03:05:18.295Z,76.62
2018-12-30T03:05:59.049Z,76.71
2018-12-30T03:06:39.790Z,76.62
2018-12-30T03:07:20.558Z,77
2018-12-30T03:08:01.318Z,76.81
2018-12-30T03:08:42.029Z,76.81
2018-12-30T03:09:22.785Z,76.81
2018-12-30T03:10:03.559Z,76.9
2018-12-30T03:10:44.331Z,76.9
2018-12-30T03:11:25.091Z,76.9
2018-12-30T03:12:05.897Z,76.9
2018-12-30T03:12:46.626Z,76.9
2018-12-30T03:13:27.351Z,76.71
2018-12-30T03:14:08.020Z,76.81
2018-12-30T03:14:48.770Z,76.23
2018-12-30T03:15:29.552Z,76.81
2018-12-30T03:16:10.299Z,76.42
2018-12-30T03:16:50.982Z,76.52
2018-12-30T03:17:31.833Z,76.42
2018-12-30T03:18:12.677Z,76.23
2018-12-30T03:18:53.453Z,76.52
2018-12-30T03:19:34.160Z,76.42
2018-12-30T03:20:14.921Z,76.81
2018-12-30T03:20:55.713Z,76.52
2018-12-30T03:21:36.460Z,76.42
2018-12-30T03:22:17.208Z,76.52
2018-12-30T03:22:57.940Z,77
2018-12-30T03:23:38.753Z,76.52
2018-12-30T03:24:19.572Z,76.62
2018-12-30T03:25:00.297Z,76.52
2018-12-30T03:25:41.070Z,76.32
2018-12-30T03:26:21.810Z,76.23
2018-12-30T03:27:02.611Z,76.32
2018-12-30T03:27:43.351Z,76.04
2018-12-30T03:28:24.064Z,76.23
2018-12-30T03:29:04.760Z,76.42
2018-12-30T03:29:45.499Z,76.52
2018-12-30T03:30:26.331Z,76.23
2018-12-30T03:31:07.214Z,76.42
2018-12-30T03:31:48.006Z,76.23
2018-12-30T03:32:28.722Z,76.32
2018-12-30T03:33:09.473Z,76.23
2018-12-30T03:33:50.306Z,76.71
2018-12-30T03:34:31.044Z,76.23
2018-12-30T03:35:11.755Z,76.23
2018-12-30T03:35:52.468Z,76.32
2018-12-30T03:36:33.195Z,76.14
2018-12-30T03:37:13.953Z,76.14
2018-12-30T03:37:54.764Z,75.85
2018-12-30T03:38:35.530Z,75.95
2018-12-30T03:39:16.268Z,75.95
2018-12-30T03:39:56.982Z,75.95
2018-12-30T03:40:37.691Z,76.14
2018-12-30T03:41:18.500Z,76.42
2018-12-30T03:41:59.307Z,76.42
2018-12-30T03:42:40.044Z,76.32
2018-12-30T03:43:20.914Z,76.23
2018-12-30T03:44:01.669Z,75.95
2018-12-30T03:44:42.540Z,75.95
2018-12-30T03:45:23.307Z,75.95
2018-12-30T03:46:04.044Z,76.42
2018-12-30T03:46:44.783Z,76.52
2018-12-30T03:47:25.554Z,76.23
2018-12-30T03:48:06.332Z,76.42
2018-12-30T03:48:47.137Z,76.32
2018-12-30T03:49:27.927Z,75.95
2018-12-30T03:50:08.656Z,75.9
2018-12-30T03:50:49.488Z,75.95
2018-12-30T03:51:30.268Z,75.75
2018-12-30T03:52:10.998Z,75.75
2018-12-30T03:52:51.725Z,75.75
2018-12-30T03:53:32.475Z,75.75
2018-12-30T03:54:13.292Z,75.75
2018-12-30T03:54:54.121Z,75.85
2018-12-30T03:55:34.850Z,75.65
2018-12-30T03:56:15.611Z,75.75
2018-12-30T03:56:56.424Z,76.23
2018-12-30T03:57:37.240Z,76.42
2018-12-30T03:58:17.970Z,76.32
2018-12-30T03:58:58.673Z,75.56
2018-12-30T03:59:39.500Z,76.52
2018-12-30T04:00:20.251Z,75.85
2018-12-30T04:01:00.971Z,76.32
2018-12-30T04:01:41.710Z,76.04
2018-12-30T04:02:22.399Z,76.23
2018-12-30T04:03:03.205Z,76.32
2018-12-30T04:03:43.988Z,75.95
2018-12-30T04:04:24.814Z,76.14
2018-12-30T04:05:05.550Z,75.75
2018-12-30T04:05:46.265Z,75.65
2018-12-30T04:06:26.999Z,75.75
2018-12-30T04:07:07.804Z,76.04
2018-12-30T04:07:48.623Z,76.14
2018-12-30T04:08:29.338Z,75.75
2018-12-30T04:09:10.178Z,76.19
2018-12-30T04:09:50.942Z,76
2018-12-30T04:10:31.789Z,75.95
2018-12-30T04:11:12.547Z,76.23
2018-12-30T04:11:53.289Z,76.04
2018-12-30T04:12:34.183Z,75.85
2018-12-30T04:13:14.883Z,75.75
2018-12-30T04:13:55.588Z,76.04
2018-12-30T04:14:36.332Z,76.32
2018-12-30T04:15:17.027Z,76.04
2018-12-30T04:15:57.801Z,75.95
2018-12-30T04:16:38.640Z,76.04
2018-12-30T04:17:19.340Z,75.85
2018-12-30T04:18:00.058Z,76.1
2018-12-30T04:18:40.890Z,75.81
2018-12-30T04:19:21.738Z,76.42
2018-12-30T04:20:02.493Z,76.23
2018-12-30T04:20:43.232Z,76.14
2018-12-30T04:21:23.959Z,76.32
2018-12-30T04:22:04.700Z,76.23
2018-12-30T04:22:45.534Z,75.85
2018-12-30T04:23:26.287Z,75.23
2018-12-30T04:24:07.108Z,75.85
2018-12-30T04:24:47.849Z,75.75
2018-12-30T04:25:28.566Z,76.14
2018-12-30T04:26:09.381Z,76
2018-12-30T04:26:50.126Z,75.18
2018-12-30T04:27:30.932Z,75.75
2018-12-30T04:28:11.656Z,76
2018-12-30T04:28:52.430Z,75.95
2018-12-30T04:29:33.219Z,76.04
2018-12-30T04:30:13.983Z,75.71
2018-12-30T04:30:54.722Z,75.18
2018-12-30T04:31:35.535Z,75.71
2018-12-30T04:32:16.383Z,75.18
2018-12-30T04:32:57.171Z,76.04
2018-12-30T04:33:37.847Z,75.71
2018-12-30T04:34:18.596Z,75.95
2018-12-30T04:34:59.418Z,75.71
2018-12-30T04:35:40.120Z,75.71
2018-12-30T04:36:20.848Z,76.1
2018-12-30T04:37:01.533Z,74.98
2018-12-30T04:37:42.315Z,76.04
2018-12-30T04:38:23.062Z,75.23
2018-12-30T04:39:03.858Z,75.85
2018-12-30T04:39:44.613Z,75.37
2018-12-30T04:40:25.326Z,75.95
2018-12-30T04:41:06.029Z,75.23
2018-12-30T04:41:46.822Z,76.04
2018-12-30T04:42:27.562Z,76.14
2018-12-30T04:43:08.261Z,75.95
2018-12-30T04:43:49.013Z,75.33
2018-12-30T04:44:29.798Z,76.04
2018-12-30T04:45:10.615Z,76.14
2018-12-30T04:45:51.406Z,75.37
2018-12-30T04:46:32.152Z,75.52
2018-12-30T04:47:12.898Z,75.46
2018-12-30T04:47:53.655Z,75.71
2018-12-30T04:48:34.467Z,75.33
2018-12-30T04:49:15.220Z,75.46
2018-12-30T04:49:56.054Z,75.37
2018-12-30T04:50:36.854Z,75.52
2018-12-30T04:51:17.624Z,75.56
2018-12-30T04:51:58.465Z,75.62
2018-12-30T04:52:39.221Z,75.43
2018-12-30T04:53:19.914Z,75.33
2018-12-30T04:54:00.622Z,75.65
2018-12-30T04:54:41.353Z,75.46
2018-12-30T04:55:22.149Z,75.71
2018-12-30T04:56:02.901Z,75.81
2018-12-30T04:56:43.698Z,75.65
2018-12-30T04:57:24.420Z,75.33
2018-12-30T04:58:05.147Z,75.08
2018-12-30T04:58:45.892Z,75.75
2018-12-30T04:59:26.658Z,75.75
2018-12-30T05:00:07.484Z,75.65
2018-12-30T05:00:48.242Z,75.9
2018-12-30T05:01:28.996Z,75.52
2018-12-30T05:02:09.792Z,75.85
2018-12-30T05:02:50.620Z,75.9
2018-12-30T05:03:31.362Z,75.85
2018-12-30T05:04:12.069Z,75.9
2018-12-30T05:04:52.839Z,75.95
2018-12-30T05:05:33.577Z,75.71
2018-12-30T05:06:14.321Z,75.62
2018-12-30T05:06:55.033Z,75.9
2018-12-30T05:07:35.800Z,75.9
2018-12-30T05:08:16.560Z,75.75
2018-12-30T05:08:57.302Z,75.46
2018-12-30T05:09:38.043Z,75.71
2018-12-30T05:10:18.806Z,75.71
2018-12-30T05:10:59.595Z,75.75
2018-12-30T05:11:40.363Z,75.75
2018-12-30T05:12:21.126Z,75.71
2018-12-30T05:13:01.854Z,75.52
2018-12-30T05:13:42.574Z,74.95
2018-12-30T05:14:23.345Z,75.14
2018-12-30T05:15:04.157Z,75.52
2018-12-30T05:15:44.963Z,74.79
2018-12-30T05:16:25.782Z,75.08
2018-12-30T05:17:06.510Z,75.27
2018-12-30T05:17:47.257Z,75.04
2018-12-30T05:18:28.121Z,75.37
2018-12-30T05:19:08.839Z,75.56
2018-12-30T05:19:49.591Z,75.18
2018-12-30T05:20:30.322Z,75.27
2018-12-30T05:21:11.120Z,74.98
2018-12-30T05:21:51.900Z,74.85
2018-12-30T05:22:33.890Z,74.89
2018-12-30T05:23:13.517Z,74.69
2018-12-30T05:23:54.244Z,75.37
2018-12-30T05:24:34.995Z,75.33
2018-12-30T05:25:15.758Z,74.98
2018-12-30T05:25:56.558Z,75.33
2018-12-30T05:26:37.376Z,74.98
2018-12-30T05:27:18.051Z,75.04
2018-12-30T05:27:58.904Z,75.14
2018-12-30T05:28:39.631Z,75.14
2018-12-30T05:29:20.435Z,74.89
2018-12-30T05:30:01.165Z,74.85
2018-12-30T05:30:41.844Z,74.85
2018-12-30T05:31:22.528Z,75.43
2018-12-30T05:32:03.319Z,75.14
2018-12-30T05:32:44.101Z,75.14
2018-12-30T05:33:24.864Z,75.18
2018-12-30T05:34:05.628Z,75.62
2018-12-30T05:34:46.367Z,75.46
2018-12-30T05:35:27.172Z,75.71
2018-12-30T05:36:07.982Z,75.04
2018-12-30T05:36:48.689Z,75.18
2018-12-30T05:37:29.399Z,75.37
2018-12-30T05:38:10.120Z,75.04
2018-12-30T05:38:50.910Z,75.14
2018-12-30T05:39:31.733Z,75.33
2018-12-30T05:40:12.479Z,74.89
2018-12-30T05:40:53.236Z,75.14
2018-12-30T05:41:34.024Z,75.04
2018-12-30T05:42:14.828Z,75.14
2018-12-30T05:42:55.613Z,75.33
2018-12-30T05:43:36.364Z,75.08
2018-12-30T05:44:17.169Z,74.95
2018-12-30T05:44:57.944Z,74.95
2018-12-30T05:45:38.644Z,74.85
2018-12-30T05:46:19.354Z,74.95
2018-12-30T05:47:00.089Z,74.85
2018-12-30T05:47:40.851Z,74.85
2018-12-30T05:48:21.642Z,75.23
2018-12-30T05:49:02.439Z,74.95
2018-12-30T05:49:43.150Z,75.23
2018-12-30T05:50:23.862Z,75.14
2018-12-30T05:51:04.631Z,75.14
2018-12-30T05:51:45.443Z,75.04
2018-12-30T05:52:26.240Z,75.23
2018-12-30T05:53:06.960Z,74.85
2018-12-30T05:53:47.728Z,74.85
2018-12-30T05:54:28.547Z,75.23
2018-12-30T05:55:09.359Z,74.66
2018-12-30T05:55:50.143Z,74.66
2018-12-30T05:56:31.990Z,74.85
2018-12-30T05:57:11.636Z,74.57
2018-12-30T05:57:52.370Z,75.04
2018-12-30T05:58:33.114Z,75.14
2018-12-30T05:59:13.941Z,74.57
2018-12-30T05:59:54.801Z,74.66
2018-12-30T06:00:35.514Z,74.57
2018-12-30T06:01:16.313Z,74.85
2018-12-30T06:01:57.121Z,74.66
2018-12-30T06:02:37.903Z,75.23
2018-12-30T06:03:18.674Z,75.14
2018-12-30T06:03:59.440Z,75.04
2018-12-30T06:04:40.213Z,74.95
2018-12-30T06:05:21.072Z,75.33
2018-12-30T06:06:01.808Z,75.43
2018-12-30T06:06:42.601Z,75.33
2018-12-30T06:07:23.307Z,75.04
2018-12-30T06:08:04.010Z,74.47
2018-12-30T06:08:44.746Z,74.57
2018-12-30T06:09:25.488Z,74.08
2018-12-30T06:10:06.241Z,74.57
2018-12-30T06:10:46.944Z,74.47
2018-12-30T06:11:27.685Z,74.37
2018-12-30T06:12:08.514Z,74.37
2018-12-30T06:12:49.289Z,75.23
2018-12-30T06:13:30.042Z,74.85
2018-12-30T06:14:10.761Z,75.33
2018-12-30T06:14:51.523Z,74.47
2018-12-30T06:15:32.300Z,73.9
2018-12-30T06:16:13.046Z,74.47
2018-12-30T06:16:53.773Z,74.27
2018-12-30T06:17:34.482Z,74.18
2018-12-30T06:18:15.286Z,74.37
2018-12-30T06:18:56.068Z,74.18
2018-12-30T06:19:36.870Z,74.57
2018-12-30T06:20:17.628Z,74.37
2018-12-30T06:20:58.385Z,74.37
2018-12-30T06:21:39.239Z,74.27
2018-12-30T06:22:19.925Z,74.47
2018-12-30T06:23:00.668Z,74.27
2018-12-30T06:23:41.372Z,74.08
2018-12-30T06:24:22.142Z,74.27
2018-12-30T06:25:02.992Z,74.37
2018-12-30T06:25:43.751Z,74.08
2018-12-30T06:26:24.489Z,73.99
2018-12-30T06:27:05.247Z,74.37
2018-12-30T06:27:46.027Z,74.27
2018-12-30T06:28:26.810Z,74.27
2018-12-30T06:29:07.524Z,74.27
2018-12-30T06:29:48.267Z,74.27
2018-12-30T06:30:29.019Z,74.27
2018-12-30T06:31:09.805Z,74.37
2018-12-30T06:31:50.610Z,74.08
2018-12-30T06:32:31.333Z,74.47
2018-12-30T06:33:12.120Z,74.27
2018-12-30T06:33:52.915Z,74.37
2018-12-30T06:34:33.717Z,74.37
2018-12-30T06:35:14.457Z,74.08
2018-12-30T06:35:55.201Z,74.47
2018-12-30T06:36:36.065Z,73.9
2018-12-30T06:37:16.766Z,74.27
2018-12-30T06:37:57.498Z,74.27
2018-12-30T06:38:38.207Z,73.8
2018-12-30T06:39:18.947Z,74.47
2018-12-30T06:39:59.756Z,74.08
2018-12-30T06:40:40.512Z,74.27
2018-12-30T06:41:21.316Z,74.47
2018-12-30T06:42:02.064Z,74.37
2018-12-30T06:42:42.737Z,74.37
2018-12-30T06:43:23.462Z,74.08
2018-12-30T06:44:04.247Z,74.08
2018-12-30T06:44:44.959Z,74.08
2018-12-30T06:45:25.691Z,74.18
2018-12-30T06:46:06.477Z,74.27
2018-12-30T06:46:47.263Z,73.9
2018-12-30T06:47:28.051Z,73.9
2018-12-30T06:48:08.769Z,74.08
2018-12-30T06:48:49.523Z,74.27
2018-12-30T06:49:30.343Z,74.08
2018-12-30T06:50:11.060Z,74.18
2018-12-30T06:50:51.772Z,74.08
2018-12-30T06:51:32.451Z,74.08
2018-12-30T06:52:13.208Z,73.99
2018-12-30T06:52:57.679Z,74.18
2018-12-30T06:53:34.769Z,74.18
2018-12-30T06:54:15.496Z,73.99
2018-12-30T06:54:56.293Z,73.99
2018-12-30T06:55:37.057Z,74.08
2018-12-30T06:56:17.873Z,74.37
2018-12-30T06:56:58.588Z,73.9
2018-12-30T06:57:39.335Z,73.99
2018-12-30T06:58:20.072Z,73.9
2018-12-30T06:59:00.850Z,73.8
2018-12-30T06:59:42.630Z,73.8
2018-12-30T07:00:23.423Z,73.9
2018-12-30T07:01:04.147Z,73.8
2018-12-30T07:01:44.893Z,73.9
2018-12-30T07:02:25.679Z,73.9
2018-12-30T07:03:06.519Z,73.8
2018-12-30T07:03:47.240Z,73.8
2018-12-30T07:04:27.939Z,73.9
2018-12-30T07:05:08.676Z,73.8
2018-12-30T07:05:49.466Z,73.9
2018-12-30T07:06:30.215Z,73.99
2018-12-30T07:07:11.022Z,73.41
2018-12-30T07:07:51.756Z,73.22
2018-12-30T07:08:32.505Z,73.13
2018-12-30T07:09:13.218Z,73.61
2018-12-30T07:09:54.000Z,73.32
2018-12-30T07:10:34.773Z,73.8
2018-12-30T07:11:15.534Z,73.32
2018-12-30T07:11:56.246Z,73.41
2018-12-30T07:12:37.034Z,73.41
2018-12-30T07:13:17.899Z,73.13
2018-12-30T07:13:58.649Z,72.94
2018-12-30T07:14:39.397Z,73.61
2018-12-30T07:15:20.100Z,73.13
2018-12-30T07:16:00.887Z,73.22
2018-12-30T07:16:41.707Z,73.99
2018-12-30T07:17:22.444Z,73.22
2018-12-30T07:18:03.240Z,73.32
2018-12-30T07:18:44.006Z,73.13
2018-12-30T07:19:24.789Z,73.22
2018-12-30T07:20:05.597Z,73.41
2018-12-30T07:20:46.313Z,73.41
2018-12-30T07:21:27.076Z,73.41
2018-12-30T07:22:07.793Z,73.51
2018-12-30T07:22:48.557Z,73.61
2018-12-30T07:23:29.412Z,73.03
2018-12-30T07:24:10.159Z,73.61
2018-12-30T07:24:50.928Z,73.13
2018-12-30T07:25:31.758Z,73.32
2018-12-30T07:26:12.510Z,73.13
2018-12-30T07:26:53.309Z,73.41
2018-12-30T07:27:34.027Z,73.41
2018-12-30T07:28:14.741Z,73.41
2018-12-30T07:28:55.563Z,73.32
2018-12-30T07:29:36.286Z,73.22
2018-12-30T07:30:17.017Z,73.22
2018-12-30T07:30:57.758Z,73.13
2018-12-30T07:31:38.522Z,73.32
2018-12-30T07:32:19.332Z,73.41
2018-12-30T07:33:00.247Z,73.51
2018-12-30T07:33:40.931Z,73.41
2018-12-30T07:34:21.612Z,73.22
2018-12-30T07:35:02.387Z,73.22
2018-12-30T07:35:43.127Z,73.13
2018-12-30T07:36:23.943Z,72.74
2018-12-30T07:37:04.635Z,72.74
2018-12-30T07:37:45.411Z,72.74
2018-12-30T07:38:26.227Z,72.64
2018-12-30T07:39:07.012Z,73.03
2018-12-30T07:39:47.816Z,72.84
2018-12-30T07:40:28.521Z,73.03
2018-12-30T07:41:09.253Z,72.64
2018-12-30T07:41:49.958Z,73.13
2018-12-30T07:42:30.792Z,72.74
2018-12-30T07:43:11.553Z,72.64
2018-12-30T07:43:52.326Z,72.74
2018-12-30T07:44:33.041Z,72.84
2018-12-30T07:45:13.764Z,73.03
2018-12-30T07:45:54.539Z,73.03
2018-12-30T07:46:35.292Z,72.64
2018-12-30T07:47:15.989Z,73.03
2018-12-30T07:47:56.713Z,73.03
2018-12-30T07:48:37.416Z,73.03
2018-12-30T07:49:18.206Z,72.64
2018-12-30T07:49:58.988Z,72.94
2018-12-30T07:50:39.784Z,72.17
2018-12-30T07:51:20.509Z,72.94
2018-12-30T07:52:01.224Z,73.03
2018-12-30T07:52:41.988Z,72.74
2018-12-30T07:53:22.791Z,72.74
2018-12-30T07:54:03.558Z,72.84
2018-12-30T07:54:44.314Z,72.36
2018-12-30T07:55:25.093Z,72.64
2018-12-30T07:56:05.874Z,72.74
2018-12-30T07:56:46.700Z,72.64
2018-12-30T07:57:27.502Z,72.84
2018-12-30T07:58:08.255Z,72.74
2018-12-30T07:58:49.105Z,72.74
2018-12-30T07:59:29.865Z,72.36
2018-12-30T08:00:10.574Z,72.36
2018-12-30T08:00:51.294Z,72.94
2018-12-30T08:01:31.991Z,72.45
2018-12-30T08:02:12.806Z,72.64
2018-12-30T08:02:53.575Z,72.74
2018-12-30T08:03:34.340Z,72.45
2018-12-30T08:04:15.179Z,72.64
2018-12-30T08:04:55.954Z,72.55
2018-12-30T08:05:36.745Z,72.64
2018-12-30T08:06:17.474Z,72.55
2018-12-30T08:06:58.199Z,72.64
2018-12-30T08:07:38.986Z,72.74
2018-12-30T08:08:19.777Z,72.36
2018-12-30T08:09:00.632Z,72.17
2018-12-30T08:09:41.479Z,71.98
2018-12-30T08:10:22.301Z,72.45
2018-12-30T08:11:02.971Z,72.27
2018-12-30T08:11:43.733Z,72.27
2018-12-30T08:12:24.469Z,72.64
2018-12-30T08:13:05.213Z,72.64
2018-12-30T08:13:45.967Z,72.74
2018-12-30T08:14:26.696Z,72.27
2018-12-30T08:15:07.488Z,72.17
2018-12-30T08:15:49.002Z,72.36
2018-12-30T08:16:29.078Z,72.36
2018-12-30T08:17:09.808Z,72.27
2018-12-30T08:17:50.557Z,72.17
2018-12-30T08:18:31.258Z,72.45
2018-12-30T08:19:12.063Z,72.45
2018-12-30T08:19:52.807Z,72.17
2018-12-30T08:20:33.576Z,72.45
2018-12-30T08:21:14.379Z,72.84
2018-12-30T08:21:55.203Z,72.17
2018-12-30T08:22:35.995Z,72.27
2018-12-30T08:23:21.363Z,72.45
2018-12-30T08:23:57.493Z,72.17
2018-12-30T08:24:38.245Z,72.27
2018-12-30T08:25:19.002Z,72.45
2018-12-30T08:25:59.827Z,72.45
2018-12-30T08:26:40.580Z,72.45
2018-12-30T08:27:21.379Z,72.36
2018-12-30T08:28:02.109Z,72.55
2018-12-30T08:28:42.836Z,72.36
2018-12-30T08:29:23.645Z,72.17
2018-12-30T08:30:04.395Z,72.27
2018-12-30T08:30:45.095Z,72.55
2018-12-30T08:31:25.807Z,72.17
2018-12-30T08:32:06.564Z,72.45
2018-12-30T08:32:47.377Z,72.36
2018-12-30T08:33:28.112Z,72.45
2018-12-30T08:34:08.832Z,72.45
2018-12-30T08:34:49.647Z,72.36
2018-12-30T08:35:30.635Z,72.55
2018-12-30T08:36:11.401Z,72.36
2018-12-30T08:36:52.127Z,72.27
2018-12-30T08:37:32.903Z,72.55
2018-12-30T08:38:13.679Z,72.64
2018-12-30T08:38:54.422Z,72.17
2018-12-30T08:39:35.146Z,72.27
2018-12-30T08:40:15.902Z,72.27
2018-12-30T08:40:56.686Z,72.17
2018-12-30T08:41:37.498Z,72.17
2018-12-30T08:42:18.314Z,72.55
2018-12-30T08:42:59.033Z,72.55
2018-12-30T08:43:39.737Z,73.13
2018-12-30T08:44:20.466Z,72.55
2018-12-30T08:45:01.209Z,72.64
2018-12-30T08:45:42.043Z,72.64
2018-12-30T08:46:22.841Z,72.55
2018-12-30T08:47:03.623Z,72.07